Time;durP1;ratioP1;P1;durP2;ratioP2;P2;SDS_P1;SDS_P2;PMS_P1;PMS_P2;Temp;Humidity;BMP_temperature;BMP_pressure;BME280_temperature;BME280_humidity;BME280_pressure;Samples;Min_cycle;Max_cycle;Signal;HPM_P1;HPM_P2
2023/07/25 00:02:09;;;;;;;8.07;2.83;;;14.30;99.90;;;;;;5033611;28;20469;-61
2023/07/25 00:04:35;;;;;;;5.50;2.50;;;14.20;99.90;;;;;;5033649;28;20459;-61
2023/07/25 00:07:02;;;;;;;3.60;2.60;;;14.20;99.90;;;;;;5033594;28;20540;-61
2023/07/25 00:09:30;;;;;;;7.03;2.77;;;14.10;99.90;;;;;;5033209;28;20452;-61
2023/07/25 00:11:57;;;;;;;9.60;2.97;;;14.10;99.90;;;;;;5033777;28;20472;-62
2023/07/25 00:14:24;;;;;;;6.40;2.53;;;14.10;99.90;;;;;;5033578;28;20446;-61
2023/07/25 00:16:51;;;;;;;8.83;3.23;;;14.00;99.90;;;;;;5033553;28;20495;-62
2023/07/25 00:19:17;;;;;;;5.87;3.97;;;14.00;99.90;;;;;;5032863;28;20451;-61
2023/07/25 00:21:44;;;;;;;4.23;3.10;;;13.90;99.90;;;;;;5032866;28;20458;-61
2023/07/25 00:24:11;;;;;;;4.47;3.33;;;13.90;99.90;;;;;;5032808;28;20448;-61
2023/07/25 00:26:39;;;;;;;5.73;3.60;;;13.80;99.90;;;;;;5034141;28;20815;-61
2023/07/25 00:29:06;;;;;;;5.60;4.30;;;13.80;99.90;;;;;;5037315;28;20920;-61
2023/07/25 00:31:33;;;;;;;12.80;3.83;;;13.80;99.90;;;;;;5037184;28;20817;-62
2023/07/25 00:33:59;;;;;;;8.60;3.60;;;13.70;99.90;;;;;;5037255;28;20452;-61
2023/07/25 00:36:26;;;;;;;8.17;3.57;;;13.70;99.90;;;;;;5037245;28;20492;-59
2023/07/25 00:38:53;;;;;;;9.50;3.70;;;13.70;99.90;;;;;;5037101;28;20453;-61
2023/07/25 00:41:20;;;;;;;4.57;3.30;;;13.70;99.90;;;;;;5037020;28;20452;-61
2023/07/25 00:43:48;;;;;;;13.87;4.70;;;13.60;99.90;;;;;;5037026;28;20483;-61
2023/07/25 00:46:16;;;;;;;6.00;4.10;;;13.60;99.90;;;;;;5036994;28;20470;-61
2023/07/25 00:48:44;;;;;;;5.27;3.43;;;13.60;99.90;;;;;;5036933;28;20444;-61
2023/07/25 00:51:11;;;;;;;10.37;3.87;;;13.60;99.90;;;;;;5036844;28;20452;-61
2023/07/25 00:53:38;;;;;;;11.30;3.33;;;13.60;99.90;;;;;;5036836;28;20464;-61
2023/07/25 00:56:06;;;;;;;8.97;3.77;;;13.60;99.90;;;;;;5036778;28;20488;-61
2023/07/25 00:58:33;;;;;;;8.90;4.70;;;13.60;99.90;;;;;;5036803;28;20464;-60
2023/07/25 01:01:05;;;;;;;9.70;4.47;;;13.60;99.90;;;;;;5036380;28;20472;-60
2023/07/25 01:03:35;;;;;;;14.80;4.03;;;13.50;99.90;;;;;;5036265;28;20472;-60
2023/07/25 01:06:05;;;;;;;9.60;4.43;;;13.50;99.90;;;;;;5036220;28;20450;-61
2023/07/25 01:08:32;;;;;;;6.10;3.53;;;13.50;99.90;;;;;;5036161;28;20464;-61
2023/07/25 01:10:59;;;;;;;5.70;3.10;;;13.50;99.90;;;;;;5036117;28;20445;-59
2023/07/25 01:13:26;;;;;;;7.77;3.70;;;13.50;99.90;;;;;;5036158;28;20467;-61
2023/07/25 01:15:54;;;;;;;7.20;3.90;;;13.50;99.90;;;;;;5036047;28;20447;-60
2023/07/25 01:18:22;;;;;;;11.80;4.83;;;13.50;99.90;;;;;;5036052;28;20488;-61
2023/07/25 01:20:50;;;;;;;12.10;3.87;;;13.60;99.90;;;;;;5036037;28;20542;-61
2023/07/25 01:23:18;;;;;;;8.17;3.63;;;13.60;99.90;;;;;;5036045;28;20463;-61
2023/07/25 01:25:48;;;;;;;5.83;3.70;;;13.60;99.90;;;;;;5035888;28;20486;-60
2023/07/25 01:28:15;;;;;;;8.00;3.07;;;13.70;99.90;;;;;;5036064;28;20440;-60
2023/07/25 01:30:41;;;;;;;6.10;3.00;;;13.70;99.90;;;;;;5035802;28;20539;-61
2023/07/25 01:33:08;;;;;;;3.60;2.57;;;13.70;99.90;;;;;;5035748;28;20471;-62
2023/07/25 01:35:35;;;;;;;3.40;2.90;;;13.70;99.90;;;;;;5035905;28;20447;-61
2023/07/25 01:38:02;;;;;;;12.10;4.30;;;13.70;99.90;;;;;;5035652;28;20480;-61
2023/07/25 01:40:29;;;;;;;8.40;3.07;;;13.80;99.90;;;;;;5035562;28;20445;-61
2023/07/25 01:42:57;;;;;;;8.60;3.10;;;13.80;99.90;;;;;;5036259;28;20480;-61
2023/07/25 01:45:24;;;;;;;6.67;2.77;;;13.80;99.90;;;;;;5035669;28;20946;-59
2023/07/25 01:47:50;;;;;;;5.67;2.60;;;13.80;99.90;;;;;;5035709;28;20449;-61
2023/07/25 01:50:18;;;;;;;4.00;2.70;;;13.80;99.90;;;;;;5035387;28;20533;-61
2023/07/25 01:52:44;;;;;;;5.70;2.80;;;13.80;99.90;;;;;;5035853;28;20470;-61
2023/07/25 01:55:11;;;;;;;6.40;2.60;;;13.90;99.90;;;;;;5035596;28;20453;-61
2023/07/25 01:57:38;;;;;;;5.17;3.30;;;13.90;99.90;;;;;;5035478;28;20480;-60
2023/07/25 02:00:07;;;;;;;4.77;3.00;;;13.90;99.90;;;;;;5035354;28;20448;-61
2023/07/25 02:02:34;;;;;;;3.70;2.70;;;13.90;99.90;;;;;;5035332;28;20804;-60
2023/07/25 02:05:01;;;;;;;5.23;3.27;;;13.90;99.90;;;;;;5035307;28;20445;-60
2023/07/25 02:07:28;;;;;;;5.93;3.63;;;13.90;99.90;;;;;;5035412;28;20440;-59
2023/07/25 02:09:54;;;;;;;5.57;2.90;;;13.90;99.90;;;;;;5035985;28;20455;-60
2023/07/25 02:12:21;;;;;;;5.30;2.90;;;13.90;99.90;;;;;;5038158;28;20463;-62
2023/07/25 02:14:48;;;;;;;5.03;2.87;;;13.90;99.90;;;;;;5038112;28;20452;-61
2023/07/25 02:17:19;;;;;;;7.00;3.50;;;14.00;99.90;;;;;;5036856;28;20473;-60
2023/07/25 02:19:46;;;;;;;11.83;3.70;;;14.00;99.90;;;;;;5038255;28;20532;-62
2023/07/25 02:22:12;;;;;;;4.97;3.13;;;14.00;99.90;;;;;;5036873;28;20536;-61
2023/07/25 02:24:39;;;;;;;6.87;2.93;;;14.00;99.90;;;;;;5036397;28;20452;-60
2023/07/25 02:27:06;;;;;;;6.93;3.23;;;14.00;99.90;;;;;;5036467;28;20440;-60
2023/07/25 02:29:33;;;;;;;5.83;3.13;;;14.00;99.90;;;;;;5035987;28;20445;-60
2023/07/25 02:32:00;;;;;;;6.23;3.83;;;14.00;99.90;;;;;;5036560;28;20465;-60
2023/07/25 02:34:28;;;;;;;3.47;3.17;;;14.00;99.90;;;;;;5036277;28;20454;-60
2023/07/25 02:36:54;;;;;;;6.43;3.60;;;14.00;99.90;;;;;;5036076;28;20958;-59
2023/07/25 02:39:21;;;;;;;10.93;3.60;;;14.00;99.90;;;;;;5037336;28;20452;-60
2023/07/25 02:41:48;;;;;;;7.67;4.93;;;14.00;99.90;;;;;;5036236;28;20448;-59
2023/07/25 02:44:15;;;;;;;6.63;3.87;;;14.00;99.90;;;;;;5036360;28;20436;-60
2023/07/25 02:46:41;;;;;;;4.00;3.10;;;14.10;99.90;;;;;;5035646;28;20450;-60
2023/07/25 02:49:08;;;;;;;3.60;3.30;;;14.10;99.90;;;;;;5035261;28;20449;-58
2023/07/25 02:51:36;;;;;;;5.60;3.90;;;14.00;99.90;;;;;;5033616;28;20442;-60
2023/07/25 02:54:03;;;;;;;6.30;3.60;;;14.10;99.90;;;;;;5034931;28;20471;-60
2023/07/25 02:56:30;;;;;;;6.50;3.37;;;14.10;99.90;;;;;;5035327;28;20969;-60
2023/07/25 02:58:57;;;;;;;5.07;3.77;;;14.10;99.90;;;;;;5035424;28;20480;-60
2023/07/25 03:01:24;;;;;;;8.60;4.10;;;14.10;99.90;;;;;;5036688;28;20452;-60
2023/07/25 03:03:50;;;;;;;9.10;4.13;;;14.10;99.90;;;;;;5037048;28;20526;-61
2023/07/25 03:06:17;;;;;;;7.20;4.10;;;14.10;99.90;;;;;;5036159;28;20463;-61
2023/07/25 03:08:45;;;;;;;9.83;3.50;;;14.10;99.90;;;;;;5037016;28;20528;-60
2023/07/25 03:11:12;;;;;;;10.73;3.43;;;14.10;99.90;;;;;;5036711;28;20444;-61
2023/07/25 03:13:39;;;;;;;8.07;4.43;;;14.10;99.90;;;;;;5036206;28;20518;-61
2023/07/25 03:16:06;;;;;;;7.23;3.50;;;14.10;99.90;;;;;;5037301;28;20449;-60
2023/07/25 03:18:33;;;;;;;6.47;4.03;;;14.10;99.90;;;;;;5037651;28;20486;-61
2023/07/25 03:20:59;;;;;;;5.30;3.07;;;14.10;99.90;;;;;;5033883;28;20442;-61
2023/07/25 03:23:26;;;;;;;8.63;4.17;;;14.10;99.90;;;;;;5033728;28;20461;-61
2023/07/25 03:25:54;;;;;;;9.07;4.00;;;14.10;99.90;;;;;;5033540;28;20451;-61
2023/07/25 03:28:21;;;;;;;8.17;5.70;;;14.10;99.90;;;;;;5034073;28;20441;-60
2023/07/25 03:30:48;;;;;;;5.27;3.30;;;14.00;99.90;;;;;;5034027;28;20451;-62
2023/07/25 03:33:14;;;;;;;7.77;3.80;;;14.00;99.90;;;;;;5033911;28;20461;-61
2023/07/25 03:35:41;;;;;;;15.90;4.87;;;14.10;99.90;;;;;;5033472;28;20552;-60
2023/07/25 03:38:08;;;;;;;10.83;4.00;;;14.10;99.90;;;;;;5034616;28;20477;-61
2023/07/25 03:40:35;;;;;;;10.97;3.87;;;14.10;99.90;;;;;;5033502;28;20984;-61
2023/07/25 03:43:03;;;;;;;10.53;4.33;;;14.10;99.90;;;;;;5033837;28;20488;-61
2023/07/25 03:45:30;;;;;;;9.17;4.00;;;14.10;99.90;;;;;;5034041;28;20451;-60
2023/07/25 03:47:57;;;;;;;9.60;4.17;;;14.10;99.90;;;;;;5038676;28;20532;-61
2023/07/25 03:50:24;;;;;;;8.90;4.10;;;14.10;99.90;;;;;;5039862;28;20902;-61
2023/07/25 03:52:50;;;;;;;6.40;4.03;;;14.10;99.90;;;;;;5038448;28;20835;-61
2023/07/25 03:55:17;;;;;;;4.80;3.90;;;14.10;99.90;;;;;;5039202;28;20796;-61
2023/07/25 03:57:44;;;;;;;6.83;3.90;;;14.10;99.90;;;;;;5038933;28;20849;-60
2023/07/25 04:00:14;;;;;;;4.77;4.23;;;14.10;99.90;;;;;;5038825;28;20445;-60
2023/07/25 04:02:41;;;;;;;6.93;3.97;;;14.10;99.90;;;;;;5038610;28;20468;-61
2023/07/25 04:05:08;;;;;;;5.30;3.40;;;14.00;99.90;;;;;;5033739;28;20830;-61
2023/07/25 04:07:35;;;;;;;7.03;4.50;;;14.00;99.90;;;;;;5033150;28;20499;-60
2023/07/25 04:11:59;;;;;;;7.80;4.07;;;14.00;99.90;;;;;;5091806;27;20615;-61
2023/07/25 04:14:26;;;;;;;6.03;4.17;;;13.90;99.90;;;;;;5091086;28;20442;-61
2023/07/25 04:16:53;;;;;;;7.33;4.00;;;13.90;99.90;;;;;;5091026;28;20492;-60
2023/07/25 04:19:20;;;;;;;6.33;4.03;;;13.90;99.90;;;;;;5091629;28;20459;-62
2023/07/25 04:21:47;;;;;;;10.47;4.83;;;13.90;99.90;;;;;;5091686;28;20439;-62
2023/07/25 04:24:14;;;;;;;8.93;4.33;;;13.90;99.90;;;;;;5091244;28;20756;-62
2023/07/25 04:26:40;;;;;;;11.47;4.23;;;13.90;99.90;;;;;;5091072;28;20449;-61
2023/07/25 04:29:08;;;;;;;6.30;4.40;;;14.00;99.90;;;;;;5090483;28;20450;-61
2023/07/25 04:31:35;;;;;;;8.93;4.53;;;14.00;99.90;;;;;;5090872;28;20474;-61
2023/07/25 04:34:02;;;;;;;9.47;4.23;;;14.10;99.90;;;;;;5090988;28;20438;-62
2023/07/25 04:36:29;;;;;;;6.23;4.23;;;14.10;99.90;;;;;;5090610;28;20951;-61
2023/07/25 04:38:57;;;;;;;9.03;4.60;;;14.20;99.90;;;;;;5090538;28;20449;-60
2023/07/25 04:41:24;;;;;;;10.00;3.80;;;14.40;99.90;;;;;;5090804;28;20435;-61
2023/07/25 04:43:50;;;;;;;11.50;4.03;;;14.80;99.90;;;;;;5089902;28;20463;-61
2023/07/25 04:46:18;;;;;;;3.67;3.23;;;15.10;99.90;;;;;;5090006;28;20464;-61
2023/07/25 04:48:45;;;;;;;6.80;2.90;;;15.30;99.90;;;;;;5090711;28;20435;-61
2023/07/25 04:51:12;;;;;;;8.73;3.20;;;15.30;99.90;;;;;;5090497;28;20484;-61
2023/07/25 04:53:39;;;;;;;7.27;3.57;;;15.30;99.90;;;;;;5094368;28;20560;-61
2023/07/25 04:56:06;;;;;;;3.40;2.97;;;15.20;99.90;;;;;;5095866;28;20447;-60
2023/07/25 04:58:32;;;;;;;3.93;3.13;;;15.20;99.90;;;;;;5092963;28;20447;-61
2023/07/25 05:00:59;;;;;;;4.63;3.33;;;15.20;99.90;;;;;;5090754;28;20435;-60
2023/07/25 05:03:27;;;;;;;8.43;3.87;;;15.10;99.90;;;;;;5091012;28;20463;-60
2023/07/25 05:05:57;;;;;;;5.93;3.27;;;15.20;99.90;;;;;;5090908;28;20448;-61
2023/07/25 05:08:23;;;;;;;7.43;3.40;;;15.30;99.90;;;;;;5090695;28;20440;-60
2023/07/25 05:10:51;;;;;;;7.17;4.10;;;15.40;99.90;;;;;;5090041;28;20480;-60
2023/07/25 05:13:18;;;;;;;5.90;3.20;;;15.50;99.90;;;;;;5091263;28;20480;-61
2023/07/25 05:15:45;;;;;;;6.40;3.27;;;15.70;99.90;;;;;;5091986;28;20946;-61
2023/07/25 05:18:12;;;;;;;5.63;3.17;;;15.80;99.90;;;;;;5094109;28;20476;-62
2023/07/25 05:20:40;;;;;;;8.23;3.00;;;15.80;99.90;;;;;;5095122;28;20562;-61
2023/07/25 05:23:07;;;;;;;10.23;3.40;;;15.90;99.90;;;;;;5081434;28;20477;-61
2023/07/25 05:25:34;;;;;;;6.67;3.70;;;16.10;99.90;;;;;;5079820;28;20444;-61
2023/07/25 05:28:00;;;;;;;5.00;2.90;;;16.30;99.90;;;;;;5079048;28;20449;-59
2023/07/25 05:30:27;;;;;;;5.00;3.30;;;16.40;99.90;;;;;;5080253;28;20490;-61
2023/07/25 05:32:54;;;;;;;10.20;3.60;;;16.50;99.90;;;;;;5077436;28;21013;-61
2023/07/25 05:35:21;;;;;;;4.17;2.63;;;16.60;99.90;;;;;;5076787;28;20450;-58
2023/07/25 05:37:49;;;;;;;5.20;2.73;;;16.60;99.90;;;;;;5076673;28;20454;-60
2023/07/25 05:40:16;;;;;;;4.40;2.87;;;16.60;99.90;;;;;;5076735;28;20495;-60
2023/07/25 05:42:42;;;;;;;5.77;2.60;;;16.50;99.90;;;;;;5076165;28;21005;-60
2023/07/25 05:45:10;;;;;;;10.80;3.07;;;16.50;99.90;;;;;;5076952;28;20458;-61
2023/07/25 05:47:36;;;;;;;4.67;2.73;;;16.50;99.90;;;;;;5077300;28;20458;-61
2023/07/25 05:50:02;;;;;;;9.07;3.20;;;16.50;99.90;;;;;;5077971;28;20453;-61
2023/07/25 05:52:29;;;;;;;4.30;3.20;;;16.50;99.90;;;;;;5078318;28;20311;-61
2023/07/25 05:54:57;;;;;;;8.10;2.90;;;16.60;99.90;;;;;;5077146;28;20448;-60
2023/07/25 05:57:24;;;;;;;6.77;2.90;;;16.70;99.90;;;;;;5078191;28;20438;-59
2023/07/25 05:59:51;;;;;;;7.63;3.30;;;16.80;99.90;;;;;;5078519;28;20447;-60
2023/07/25 06:02:17;;;;;;;4.90;3.30;;;16.90;99.90;;;;;;5077373;28;20459;-61
2023/07/25 06:04:46;;;;;;;6.80;2.40;;;16.90;99.90;;;;;;5078532;28;20456;-61
2023/07/25 06:07:14;;;;;;;6.80;3.07;;;16.90;99.90;;;;;;5079055;28;20454;-59
2023/07/25 06:09:40;;;;;;;3.60;2.63;;;17.00;99.90;;;;;;5077032;28;20446;-60
2023/07/25 06:12:10;;;;;;;6.10;2.77;;;16.90;99.90;;;;;;5075971;28;20487;-61
2023/07/25 06:14:37;;;;;;;8.27;3.30;;;16.90;99.90;;;;;;5075884;28;20447;-61
2023/07/25 06:17:04;;;;;;;8.00;3.10;;;16.80;99.90;;;;;;5075646;28;20806;-60
2023/07/25 06:19:31;;;;;;;7.87;2.50;;;16.80;99.90;;;;;;5075580;28;20444;-61
2023/07/25 06:21:58;;;;;;;4.33;2.77;;;16.70;99.90;;;;;;5075979;28;20466;-61
2023/07/25 06:24:25;;;;;;;5.67;2.70;;;16.70;99.90;;;;;;5077095;28;20450;-62
2023/07/25 06:26:51;;;;;;;10.10;3.17;;;16.70;99.90;;;;;;5076980;28;20531;-60
2023/07/25 06:29:19;;;;;;;7.73;3.13;;;16.80;99.90;;;;;;5077140;28;20538;-60
2023/07/25 06:31:46;;;;;;;6.57;2.90;;;16.80;99.90;;;;;;5076750;28;20819;-62
2023/07/25 06:34:13;;;;;;;7.33;3.53;;;17.00;99.90;;;;;;5076906;28;20449;-62
2023/07/25 06:36:40;;;;;;;9.07;2.93;;;17.20;99.90;;;;;;5081042;28;21017;-62
2023/07/25 06:39:07;;;;;;;6.33;3.07;;;17.20;99.90;;;;;;5078703;28;20527;-62
2023/07/25 06:41:35;;;;;;;6.43;3.20;;;17.20;99.90;;;;;;5078590;28;20501;-61
2023/07/25 06:44:02;;;;;;;3.87;3.00;;;17.30;99.90;;;;;;5082709;28;20438;-62
2023/07/25 06:46:30;;;;;;;8.00;2.50;;;17.40;99.90;;;;;;5084821;28;20474;-62
2023/07/25 06:48:57;;;;;;;10.33;3.33;;;17.50;99.90;;;;;;5079663;28;20445;-61
2023/07/25 06:51:23;;;;;;;5.33;2.47;;;17.50;99.90;;;;;;5080603;28;21034;-63
2023/07/25 06:53:50;;;;;;;4.47;3.03;;;17.50;99.90;;;;;;5078451;28;21029;-61
2023/07/25 06:56:17;;;;;;;6.90;3.23;;;17.50;99.90;;;;;;5078150;28;20532;-60
2023/07/25 06:58:44;;;;;;;6.70;2.73;;;17.60;99.90;;;;;;5078390;28;20457;-59
2023/07/25 07:01:11;;;;;;;3.67;2.80;;;17.60;99.90;;;;;;5078629;28;20453;-61
2023/07/25 07:03:39;;;;;;;13.20;3.33;;;17.60;99.90;;;;;;5080414;28;20468;-61
2023/07/25 07:06:06;;;;;;;7.70;3.27;;;17.60;99.90;;;;;;5077962;28;20454;-60
2023/07/25 07:08:32;;;;;;;6.67;3.07;;;17.70;99.90;;;;;;5077422;28;20955;-62
2023/07/25 07:10:59;;;;;;;3.97;2.83;;;17.70;99.90;;;;;;5076679;28;20486;-61
2023/07/25 07:13:27;;;;;;;4.93;2.80;;;17.80;99.90;;;;;;5077833;28;20460;-61
2023/07/25 07:15:54;;;;;;;6.20;2.90;;;17.90;99.90;;;;;;5077242;28;20452;-61
2023/07/25 07:18:21;;;;;;;8.70;3.33;;;17.90;99.90;;;;;;5076238;28;20449;-62
2023/07/25 07:20:50;;;;;;;8.07;2.93;;;17.90;99.90;;;;;;5075814;28;20450;-60
2023/07/25 07:23:17;;;;;;;9.73;2.93;;;18.10;99.90;;;;;;5077222;28;20461;-62
2023/07/25 07:25:44;;;;;;;5.47;2.20;;;18.20;99.90;;;;;;5076704;28;20446;-61
2023/07/25 07:28:11;;;;;;;3.70;2.57;;;18.30;99.40;;;;;;5076565;28;20455;-61
2023/07/25 07:30:38;;;;;;;7.07;2.67;;;18.30;98.60;;;;;;5076230;28;20450;-61
2023/07/25 07:33:05;;;;;;;6.30;2.60;;;18.20;98.40;;;;;;5076105;28;20461;-61
2023/07/25 07:35:32;;;;;;;6.67;2.10;;;18.30;98.30;;;;;;5075840;28;20453;-62
2023/07/25 07:38:00;;;;;;;6.57;2.40;;;18.50;97.60;;;;;;5075936;28;20441;-61
2023/07/25 07:40:28;;;;;;;3.47;1.90;;;18.50;96.70;;;;;;5075257;28;20446;-62
2023/07/25 07:42:55;;;;;;;6.87;2.40;;;18.50;96.30;;;;;;5075054;28;20513;-61
2023/07/25 07:45:23;;;;;;;3.17;1.80;;;18.60;95.30;;;;;;5075074;28;20859;-58
2023/07/25 07:47:50;;;;;;;5.47;2.33;;;18.60;94.40;;;;;;5075553;28;20482;-61
2023/07/25 07:50:18;;;;;;;2.90;2.10;;;18.50;93.30;;;;;;5076104;28;20453;-61
2023/07/25 07:52:44;;;;;;;5.57;2.20;;;18.50;93.00;;;;;;5075223;28;20567;-59
2023/07/25 07:55:13;;;;;;;5.90;2.30;;;18.40;92.50;;;;;;5075217;28;20441;-61
2023/07/25 07:57:42;;;;;;;3.40;2.00;;;18.30;91.60;;;;;;5075398;28;20450;-61
2023/07/25 08:00:09;;;;;;;3.80;2.10;;;18.20;91.40;;;;;;5075392;28;20452;-60
2023/07/25 08:02:36;;;;;;;5.13;2.60;;;18.30;91.30;;;;;;5076686;28;20491;-62
2023/07/25 08:05:03;;;;;;;3.20;2.20;;;18.50;90.70;;;;;;5077326;28;20445;-61
2023/07/25 08:07:30;;;;;;;4.33;1.80;;;18.60;90.40;;;;;;5075189;28;20939;-61
2023/07/25 08:09:57;;;;;;;4.00;2.30;;;18.60;90.30;;;;;;5075962;28;20961;-61
2023/07/25 08:12:25;;;;;;;4.33;1.97;;;18.60;89.60;;;;;;5076315;28;20479;-60
2023/07/25 08:14:52;;;;;;;7.90;2.13;;;18.50;89.20;;;;;;5074440;28;20441;-60
2023/07/25 08:17:19;;;;;;;3.33;2.30;;;18.60;88.50;;;;;;5074596;28;20443;-60
2023/07/25 08:19:46;;;;;;;3.00;2.00;;;18.70;87.40;;;;;;5074490;28;20791;-62
2023/07/25 08:22:12;;;;;;;5.93;2.03;;;18.90;85.90;;;;;;5074449;28;20462;-61
2023/07/25 08:24:40;;;;;;;5.30;2.00;;;19.10;84.50;;;;;;5074409;28;20453;-61
2023/07/25 08:27:07;;;;;;;7.33;1.80;;;19.30;80.70;;;;;;5074148;28;20444;-60
2023/07/25 08:29:39;;;;;;;2.77;1.70;;;19.20;79.80;;;;;;5074648;28;20972;-60
2023/07/25 08:32:07;;;;;;;2.47;2.03;;;19.30;79.60;;;;;;5074478;28;20486;-60
2023/07/25 08:34:34;;;;;;;3.17;1.70;;;19.10;77.20;;;;;;5075323;28;20504;-61
2023/07/25 08:37:01;;;;;;;3.37;1.80;;;19.10;76.90;;;;;;5075278;28;20448;-63
2023/07/25 08:39:28;;;;;;;2.77;1.90;;;19.30;75.70;;;;;;5076178;28;20456;-62
2023/07/25 08:41:55;;;;;;;2.70;2.00;;;19.40;75.30;;;;;;5075698;28;20465;-62
2023/07/25 08:44:22;;;;;;;6.67;2.17;;;19.80;73.80;;;;;;5074517;28;20457;-62
2023/07/25 08:46:52;;;;;;;4.10;2.67;;;19.90;72.50;;;;;;5075449;28;20443;-61
2023/07/25 08:49:21;;;;;;;2.57;1.80;;;19.90;72.50;;;;;;5075496;28;20455;-62
2023/07/25 08:51:50;;;;;;;5.93;1.60;;;19.80;72.40;;;;;;5074969;28;20483;-62
2023/07/25 08:54:21;;;;;;;3.00;1.37;;;19.70;70.10;;;;;;5076747;28;20451;-60
2023/07/25 08:56:48;;;;;;;3.63;1.47;;;19.60;68.20;;;;;;5076500;28;20447;-61
2023/07/25 08:59:15;;;;;;;3.10;1.83;;;19.50;67.80;;;;;;5080311;28;20448;-61
2023/07/25 09:01:43;;;;;;;5.40;1.83;;;19.60;67.10;;;;;;5079905;28;20445;-62
2023/07/25 09:04:12;;;;;;;6.00;2.13;;;19.50;66.60;;;;;;5080128;28;20526;-61
2023/07/25 09:06:39;;;;;;;3.40;1.90;;;19.60;67.10;;;;;;5079695;28;20483;-61
2023/07/25 09:09:06;;;;;;;2.40;1.40;;;19.90;66.90;;;;;;5080024;28;20451;-61
2023/07/25 09:11:34;;;;;;;4.47;1.90;;;20.10;65.70;;;;;;5078434;28;20574;-62
2023/07/25 09:14:01;;;;;;;3.13;1.60;;;20.00;64.00;;;;;;5078658;28;20529;-61
2023/07/25 09:16:28;;;;;;;2.93;1.50;;;19.80;64.30;;;;;;5078840;28;20453;-62
2023/07/25 09:18:55;;;;;;;4.43;2.00;;;19.60;64.40;;;;;;5078367;28;20541;-62
2023/07/25 09:21:23;;;;;;;3.43;1.60;;;19.40;64.80;;;;;;5078293;28;20533;-61
2023/07/25 09:23:53;;;;;;;4.60;1.70;;;19.20;65.80;;;;;;5078207;28;20463;-60
2023/07/25 09:26:23;;;;;;;1.73;1.27;;;19.20;66.40;;;;;;5078884;28;20801;-62
2023/07/25 09:28:51;;;;;;;3.93;1.30;;;19.40;65.90;;;;;;5079388;28;20478;-63
2023/07/25 09:31:18;;;;;;;2.80;1.50;;;19.60;64.70;;;;;;5079529;28;20531;-62
2023/07/25 09:33:48;;;;;;;3.10;1.53;;;19.80;63.40;;;;;;5079544;28;20455;-62
2023/07/25 09:36:15;;;;;;;5.17;1.97;;;20.00;62.40;;;;;;5079490;28;20496;-63
2023/07/25 09:38:50;;;;;;;2.33;1.30;;;20.20;61.90;;;;;;5079286;28;20455;-62
2023/07/25 09:41:17;;;;;;;5.80;1.60;;;20.50;61.80;;;;;;5078348;28;20437;-63
2023/07/25 09:43:44;;;;;;;2.70;1.60;;;20.60;59.90;;;;;;5078208;28;20550;-62
2023/07/25 09:46:11;;;;;;;6.57;1.80;;;20.70;58.40;;;;;;5078729;28;20435;-62
2023/07/25 09:48:43;;;;;;;3.77;1.30;;;20.60;58.20;;;;;;5078855;28;20540;-62
2023/07/25 09:51:11;;;;;;;3.70;2.07;;;20.60;58.10;;;;;;5079403;28;20471;-64
2023/07/25 09:53:38;;;;;;;4.07;1.40;;;20.90;58.10;;;;;;5078442;28;20886;-61
2023/07/25 09:56:08;;;;;;;3.93;1.70;;;21.00;57.60;;;;;;5079209;28;20818;-63
2023/07/25 09:58:34;;;;;;;4.10;1.60;;;21.30;57.30;;;;;;5078526;28;20432;-61
2023/07/25 10:01:03;;;;;;;2.70;1.30;;;21.50;56.80;;;;;;5078723;28;20822;-62
2023/07/25 10:03:31;;;;;;;1.53;1.30;;;21.40;56.50;;;;;;5079143;28;20553;-64
2023/07/25 10:05:58;;;;;;;2.03;1.40;;;21.30;56.80;;;;;;5079058;28;20439;-62
2023/07/25 10:08:26;;;;;;;5.00;1.50;;;21.30;57.10;;;;;;5079131;28;20450;-63
2023/07/25 10:10:55;;;;;;;2.20;1.33;;;21.50;56.50;;;;;;5079482;28;20518;-63
2023/07/25 10:13:24;;;;;;;1.43;1.30;;;21.60;55.30;;;;;;5079360;28;20478;-62
2023/07/25 10:15:51;;;;;;;2.87;1.67;;;21.50;54.90;;;;;;5080950;28;20443;-64
2023/07/25 10:18:21;;;;;;;1.63;1.10;;;21.40;54.20;;;;;;5079560;28;20479;-64
2023/07/25 10:20:48;;;;;;;2.40;1.30;;;21.40;54.20;;;;;;5078190;28;20776;-63
2023/07/25 10:23:15;;;;;;;2.70;1.03;;;21.60;53.30;;;;;;5078675;28;20464;-63
2023/07/25 10:25:42;;;;;;;1.63;1.33;;;21.80;52.30;;;;;;5079754;28;20883;-63
2023/07/25 10:28:11;;;;;;;2.60;1.40;;;21.80;51.60;;;;;;5077721;28;20518;-63
2023/07/25 10:30:44;;;;;;;3.57;1.20;;;22.00;51.60;;;;;;5077454;28;20530;-61
2023/07/25 10:33:13;;;;;;;3.27;1.33;;;22.30;50.80;;;;;;5077372;28;20861;-64
2023/07/25 10:35:49;;;;;;;2.67;1.33;;;22.40;50.00;;;;;;5078270;28;20454;-63
2023/07/25 10:38:32;;;;;;;2.17;1.63;;;22.50;49.90;;;;;;5058872;22;20497;-60
2023/07/25 10:41:00;;;;;;;4.33;2.27;;;22.60;49.70;;;;;;5034601;28;20507;-61
2023/07/25 10:43:29;;;;;;;2.73;1.33;;;22.50;49.80;;;;;;5035670;28;20443;-61
2023/07/25 10:46:00;;;;;;;2.03;1.37;;;22.60;50.20;;;;;;5035225;28;20503;-61
2023/07/25 10:48:32;;;;;;;3.63;2.07;;;22.60;50.20;;;;;;5038051;28;20464;-61
2023/07/25 10:51:00;;;;;;;3.67;1.20;;;22.40;50.50;;;;;;5039720;28;21004;-61
2023/07/25 10:53:27;;;;;;;3.57;1.50;;;22.20;51.00;;;;;;5036472;28;20509;-61
2023/07/25 10:56:19;;;;;;;3.30;1.20;;;22.10;52.00;;;;;;5043862;28;20492;-58
2023/07/25 10:59:07;;;;;;;3.37;1.27;;;22.00;51.10;;;;;;5034064;28;20425;-60
2023/07/25 11:01:43;;;;;;;2.80;1.37;;;22.00;50.80;;;;;;5034290;28;20433;-58
2023/07/25 11:04:23;;;;;;;3.47;1.53;;;22.00;50.50;;;;;;5034185;28;20469;-60
2023/07/25 11:06:51;;;;;;;4.03;1.43;;;22.20;49.80;;;;;;5034278;28;20465;-59
2023/07/25 11:09:18;;;;;;;3.87;1.53;;;22.30;49.40;;;;;;5034156;28;20449;-60
2023/07/25 11:11:47;;;;;;;1.30;0.90;;;22.20;48.50;;;;;;5033786;28;20536;-61
2023/07/25 11:14:15;;;;;;;2.00;1.10;;;22.10;47.90;;;;;;5033890;28;20503;-58
2023/07/25 11:16:45;;;;;;;3.87;1.10;;;21.90;47.70;;;;;;5039190;28;20648;-60
2023/07/25 11:19:14;;;;;;;1.70;1.47;;;21.60;47.50;;;;;;5033764;28;20494;-60
2023/07/25 11:21:42;;;;;;;6.87;1.70;;;21.30;47.80;;;;;;5034229;28;20476;-59
2023/07/25 11:24:11;;;;;;;3.60;1.87;;;21.00;48.60;;;;;;5035085;28;20821;-58
2023/07/25 11:26:38;;;;;;;3.20;2.23;;;20.60;51.70;;;;;;5033609;28;20469;-59
2023/07/25 11:29:07;;;;;;;4.10;1.93;;;20.10;54.20;;;;;;5034117;28;20445;-60
2023/07/25 11:31:35;;;;;;;4.77;2.00;;;19.80;56.30;;;;;;5033416;28;20445;-59
2023/07/25 11:34:11;;;;;;;4.53;2.40;;;19.40;58.10;;;;;;5033904;28;20481;-59
2023/07/25 11:36:39;;;;;;;7.43;2.60;;;19.20;59.70;;;;;;5033155;28;20989;-60
2023/07/25 11:39:06;;;;;;;3.70;2.43;;;19.00;61.00;;;;;;5033312;28;20911;-59
2023/07/25 11:41:33;;;;;;;12.00;2.90;;;18.90;62.20;;;;;;5033596;28;20434;-61
2023/07/25 11:44:00;;;;;;;3.70;2.40;;;18.80;63.00;;;;;;5033973;28;20908;-59
2023/07/25 11:46:28;;;;;;;4.17;2.13;;;18.80;63.90;;;;;;5033409;28;20448;-60
2023/07/25 11:48:55;;;;;;;5.67;2.47;;;18.70;64.50;;;;;;5032972;28;20995;-60
2023/07/25 11:51:24;;;;;;;2.70;2.30;;;18.70;65.20;;;;;;5034034;28;20446;-60
2023/07/25 11:53:51;;;;;;;4.73;3.30;;;18.70;66.10;;;;;;5034745;28;20579;-60
2023/07/25 11:56:18;;;;;;;4.40;2.47;;;18.60;66.70;;;;;;5034706;28;20820;-60
2023/07/25 11:58:48;;;;;;;3.43;2.33;;;18.60;67.40;;;;;;5035669;28;20461;-59
2023/07/25 12:01:15;;;;;;;5.63;2.90;;;18.60;67.80;;;;;;5036507;28;20442;-62
2023/07/25 12:03:48;;;;;;;4.60;2.60;;;18.60;68.20;;;;;;5038590;28;20445;-60
2023/07/25 12:06:15;;;;;;;4.80;2.53;;;18.70;68.20;;;;;;5039100;28;20436;-60
2023/07/25 12:08:45;;;;;;;2.63;1.93;;;18.80;67.70;;;;;;5041484;28;20949;-59
2023/07/25 12:11:14;;;;;;;3.00;2.00;;;18.90;66.70;;;;;;5039786;28;20440;-60
2023/07/25 12:13:44;;;;;;;4.50;2.10;;;18.90;65.50;;;;;;5038022;28;20507;-60
2023/07/25 12:16:28;;;;;;;2.03;1.80;;;19.00;65.00;;;;;;5039950;28;20452;-60
2023/07/25 12:18:56;;;;;;;4.73;2.30;;;19.10;64.40;;;;;;5038201;28;20437;-59
2023/07/25 12:21:26;;;;;;;2.53;2.23;;;19.30;63.30;;;;;;5036885;28;20455;-60
2023/07/25 12:23:55;;;;;;;3.23;1.80;;;19.50;62.30;;;;;;5036471;28;20938;-60
2023/07/25 12:26:22;;;;;;;4.23;1.90;;;19.70;61.30;;;;;;5037404;28;21033;-60
2023/07/25 12:28:50;;;;;;;5.77;2.20;;;19.90;60.20;;;;;;5036674;28;20459;-61
2023/07/25 12:31:18;;;;;;;5.93;2.20;;;20.00;59.50;;;;;;5036896;28;20561;-63
2023/07/25 12:33:47;;;;;;;2.93;2.00;;;20.30;59.00;;;;;;5040377;28;20480;-59
2023/07/25 12:36:15;;;;;;;5.03;2.20;;;20.50;58.10;;;;;;5037519;28;20484;-61
2023/07/25 12:38:43;;;;;;;3.90;1.57;;;20.80;57.10;;;;;;5036638;28;20460;-61
2023/07/25 12:41:11;;;;;;;3.23;2.23;;;20.90;56.50;;;;;;5036933;28;20445;-60
2023/07/25 12:43:38;;;;;;;2.60;1.67;;;21.00;55.70;;;;;;5037653;28;20446;-59
2023/07/25 12:46:05;;;;;;;3.40;1.70;;;21.10;55.30;;;;;;5039252;28;20528;-60
2023/07/25 12:48:32;;;;;;;2.87;1.70;;;21.30;55.10;;;;;;5039068;28;20469;-60
2023/07/25 12:51:00;;;;;;;3.73;1.97;;;21.30;55.00;;;;;;5038952;28;20805;-60